sensor_id;sensor_type;location;lat;lon;timestamp;P1;durP1;ratioP1;P2;durP2;ratioP2
15425;SDS011;7812;50.072;7.036;2023-12-04T00:00:36;9.67;;;7.63;;
15425;SDS011;7812;50.072;7.036;2023-12-04T00:03:02;9.27;;;7.30;;
15425;SDS011;7812;50.072;7.036;2023-12-04T00:05:27;11.03;;;8.17;;
15425;SDS011;7812;50.072;7.036;2023-12-04T00:07:53;8.67;;;7.43;;
15425;SDS011;7812;50.072;7.036;2023-12-04T00:10:19;11.03;;;7.40;;
15425;SDS011;7812;50.072;7.036;2023-12-04T00:12:45;9.80;;;7.83;;
15425;SDS011;7812;50.072;7.036;2023-12-04T00:15:11;12.40;;;8.50;;
15425;SDS011;7812;50.072;7.036;2023-12-04T00:17:36;9.53;;;7.83;;
15425;SDS011;7812;50.072;7.036;2023-12-04T00:20:05;10.10;;;8.03;;
15425;SDS011;7812;50.072;7.036;2023-12-04T00:22:34;10.90;;;8.10;;
15425;SDS011;7812;50.072;7.036;2023-12-04T00:25:01;9.87;;;7.70;;
15425;SDS011;7812;50.072;7.036;2023-12-04T00:27:28;10.30;;;7.60;;
15425;SDS011;7812;50.072;7.036;2023-12-04T00:29:54;9.80;;;7.80;;
15425;SDS011;7812;50.072;7.036;2023-12-04T00:32:20;10.83;;;8.53;;
15425;SDS011;7812;50.072;7.036;2023-12-04T00:34:45;8.80;;;7.27;;
15425;SDS011;7812;50.072;7.036;2023-12-04T00:37:11;10.27;;;7.13;;
15425;SDS011;7812;50.072;7.036;2023-12-04T00:39:37;8.53;;;7.00;;
15425;SDS011;7812;50.072;7.036;2023-12-04T00:42:03;12.37;;;9.13;;
15425;SDS011;7812;50.072;7.036;2023-12-04T00:44:28;10.13;;;7.63;;
15425;SDS011;7812;50.072;7.036;2023-12-04T00:46:54;10.40;;;8.07;;
15425;SDS011;7812;50.072;7.036;2023-12-04T00:49:20;9.53;;;7.43;;
15425;SDS011;7812;50.072;7.036;2023-12-04T00:51:45;9.23;;;7.03;;
15425;SDS011;7812;50.072;7.036;2023-12-04T00:54:11;8.60;;;6.93;;
15425;SDS011;7812;50.072;7.036;2023-12-04T00:56:40;9.40;;;7.93;;
15425;SDS011;7812;50.072;7.036;2023-12-04T00:59:07;9.53;;;7.27;;
15425;SDS011;7812;50.072;7.036;2023-12-04T01:01:34;9.20;;;7.63;;
15425;SDS011;7812;50.072;7.036;2023-12-04T01:04:00;10.67;;;8.43;;
15425;SDS011;7812;50.072;7.036;2023-12-04T01:06:26;10.40;;;7.87;;
15425;SDS011;7812;50.072;7.036;2023-12-04T01:08:53;8.90;;;7.20;;
15425;SDS011;7812;50.072;7.036;2023-12-04T01:11:19;8.93;;;7.27;;
15425;SDS011;7812;50.072;7.036;2023-12-04T01:13:45;9.87;;;7.27;;
15425;SDS011;7812;50.072;7.036;2023-12-04T01:16:11;9.03;;;6.93;;
15425;SDS011;7812;50.072;7.036;2023-12-04T01:18:37;10.03;;;7.30;;
15425;SDS011;7812;50.072;7.036;2023-12-04T01:21:03;11.07;;;8.20;;
15425;SDS011;7812;50.072;7.036;2023-12-04T01:23:28;9.47;;;7.30;;
15425;SDS011;7812;50.072;7.036;2023-12-04T01:25:54;10.43;;;6.53;;
15425;SDS011;7812;50.072;7.036;2023-12-04T01:28:20;9.50;;;6.63;;
15425;SDS011;7812;50.072;7.036;2023-12-04T01:30:45;9.63;;;6.80;;
15425;SDS011;7812;50.072;7.036;2023-12-04T01:33:11;10.33;;;7.77;;
15425;SDS011;7812;50.072;7.036;2023-12-04T01:35:37;10.33;;;7.13;;
15425;SDS011;7812;50.072;7.036;2023-12-04T01:38:02;9.57;;;7.03;;
15425;SDS011;7812;50.072;7.036;2023-12-04T01:40:28;9.43;;;6.70;;
15425;SDS011;7812;50.072;7.036;2023-12-04T01:42:54;8.80;;;7.20;;
15425;SDS011;7812;50.072;7.036;2023-12-04T01:45:19;8.97;;;7.20;;
15425;SDS011;7812;50.072;7.036;2023-12-04T01:47:45;9.13;;;7.33;;
15425;SDS011;7812;50.072;7.036;2023-12-04T01:50:12;9.37;;;6.90;;
15425;SDS011;7812;50.072;7.036;2023-12-04T01:52:39;8.30;;;7.10;;
15425;SDS011;7812;50.072;7.036;2023-12-04T01:55:05;11.43;;;7.60;;
15425;SDS011;7812;50.072;7.036;2023-12-04T01:57:33;7.93;;;6.77;;
15425;SDS011;7812;50.072;7.036;2023-12-04T01:59:59;8.83;;;6.90;;
15425;SDS011;7812;50.072;7.036;2023-12-04T02:02:25;8.30;;;6.80;;
15425;SDS011;7812;50.072;7.036;2023-12-04T02:04:53;9.53;;;6.87;;
15425;SDS011;7812;50.072;7.036;2023-12-04T02:07:20;7.37;;;6.23;;
15425;SDS011;7812;50.072;7.036;2023-12-04T02:09:46;9.60;;;7.30;;
15425;SDS011;7812;50.072;7.036;2023-12-04T02:12:12;8.93;;;6.87;;
15425;SDS011;7812;50.072;7.036;2023-12-04T02:14:37;7.53;;;6.77;;
15425;SDS011;7812;50.072;7.036;2023-12-04T02:17:03;9.07;;;6.37;;
15425;SDS011;7812;50.072;7.036;2023-12-04T02:19:31;8.37;;;6.57;;
15425;SDS011;7812;50.072;7.036;2023-12-04T02:21:57;7.73;;;6.13;;
15425;SDS011;7812;50.072;7.036;2023-12-04T02:24:23;8.53;;;6.90;;
15425;SDS011;7812;50.072;7.036;2023-12-04T02:26:52;7.37;;;5.93;;
15425;SDS011;7812;50.072;7.036;2023-12-04T02:29:32;9.07;;;7.33;;
15425;SDS011;7812;50.072;7.036;2023-12-04T02:32:02;8.07;;;6.37;;
15425;SDS011;7812;50.072;7.036;2023-12-04T02:34:30;9.60;;;6.87;;
15425;SDS011;7812;50.072;7.036;2023-12-04T02:36:58;8.03;;;6.67;;
15425;SDS011;7812;50.072;7.036;2023-12-04T02:39:26;10.53;;;6.80;;
15425;SDS011;7812;50.072;7.036;2023-12-04T02:41:52;8.30;;;6.90;;
15425;SDS011;7812;50.072;7.036;2023-12-04T02:44:17;8.13;;;6.50;;
15425;SDS011;7812;50.072;7.036;2023-12-04T02:46:43;8.83;;;6.23;;
15425;SDS011;7812;50.072;7.036;2023-12-04T02:49:09;8.47;;;6.20;;
15425;SDS011;7812;50.072;7.036;2023-12-04T02:51:35;10.07;;;7.43;;
15425;SDS011;7812;50.072;7.036;2023-12-04T02:54:00;9.40;;;7.27;;
15425;SDS011;7812;50.072;7.036;2023-12-04T02:56:26;8.80;;;6.73;;
15425;SDS011;7812;50.072;7.036;2023-12-04T02:58:52;9.33;;;6.63;;
15425;SDS011;7812;50.072;7.036;2023-12-04T03:01:17;8.87;;;6.47;;
15425;SDS011;7812;50.072;7.036;2023-12-04T03:03:43;8.30;;;6.03;;
15425;SDS011;7812;50.072;7.036;2023-12-04T03:06:09;8.67;;;6.50;;
15425;SDS011;7812;50.072;7.036;2023-12-04T03:08:34;8.13;;;6.30;;
15425;SDS011;7812;50.072;7.036;2023-12-04T03:11:01;8.23;;;6.63;;
15425;SDS011;7812;50.072;7.036;2023-12-04T03:13:28;9.70;;;6.50;;
15425;SDS011;7812;50.072;7.036;2023-12-04T03:15:53;8.30;;;6.20;;
15425;SDS011;7812;50.072;7.036;2023-12-04T03:18:19;9.30;;;7.10;;
15425;SDS011;7812;50.072;7.036;2023-12-04T03:20:45;7.70;;;6.20;;
15425;SDS011;7812;50.072;7.036;2023-12-04T03:23:10;8.33;;;6.43;;
15425;SDS011;7812;50.072;7.036;2023-12-04T03:25:36;9.07;;;6.27;;
15425;SDS011;7812;50.072;7.036;2023-12-04T03:28:02;8.60;;;6.80;;
15425;SDS011;7812;50.072;7.036;2023-12-04T03:30:27;9.40;;;6.97;;
15425;SDS011;7812;50.072;7.036;2023-12-04T03:32:53;8.60;;;6.70;;
15425;SDS011;7812;50.072;7.036;2023-12-04T03:35:19;6.57;;;5.47;;
15425;SDS011;7812;50.072;7.036;2023-12-04T03:37:44;9.13;;;6.47;;
15425;SDS011;7812;50.072;7.036;2023-12-04T03:40:16;8.03;;;6.50;;
15425;SDS011;7812;50.072;7.036;2023-12-04T03:42:42;8.87;;;7.17;;
15425;SDS011;7812;50.072;7.036;2023-12-04T03:45:08;10.23;;;6.30;;
15425;SDS011;7812;50.072;7.036;2023-12-04T03:47:34;8.20;;;6.53;;
15425;SDS011;7812;50.072;7.036;2023-12-04T03:49:59;9.17;;;6.67;;
15425;SDS011;7812;50.072;7.036;2023-12-04T03:52:25;8.97;;;6.63;;
15425;SDS011;7812;50.072;7.036;2023-12-04T03:54:50;8.00;;;6.57;;
15425;SDS011;7812;50.072;7.036;2023-12-04T03:57:16;9.07;;;7.00;;
15425;SDS011;7812;50.072;7.036;2023-12-04T03:59:43;9.23;;;6.60;;
15425;SDS011;7812;50.072;7.036;2023-12-04T04:02:09;7.90;;;6.27;;
15425;SDS011;7812;50.072;7.036;2023-12-04T04:04:34;8.17;;;6.20;;
15425;SDS011;7812;50.072;7.036;2023-12-04T04:07:00;6.97;;;5.87;;
15425;SDS011;7812;50.072;7.036;2023-12-04T04:09:25;8.00;;;6.27;;
15425;SDS011;7812;50.072;7.036;2023-12-04T04:11:51;10.23;;;6.93;;
15425;SDS011;7812;50.072;7.036;2023-12-04T04:14:17;8.47;;;6.43;;
15425;SDS011;7812;50.072;7.036;2023-12-04T04:16:42;7.70;;;6.33;;
15425;SDS011;7812;50.072;7.036;2023-12-04T04:19:08;8.97;;;6.37;;
15425;SDS011;7812;50.072;7.036;2023-12-04T04:21:33;9.10;;;7.23;;
15425;SDS011;7812;50.072;7.036;2023-12-04T04:23:59;8.13;;;6.47;;
15425;SDS011;7812;50.072;7.036;2023-12-04T04:26:25;7.90;;;6.73;;
15425;SDS011;7812;50.072;7.036;2023-12-04T04:28:50;9.13;;;7.07;;
15425;SDS011;7812;50.072;7.036;2023-12-04T04:31:16;6.93;;;5.73;;
15425;SDS011;7812;50.072;7.036;2023-12-04T04:33:42;8.90;;;6.70;;
15425;SDS011;7812;50.072;7.036;2023-12-04T04:36:09;8.47;;;6.63;;
15425;SDS011;7812;50.072;7.036;2023-12-04T04:38:35;8.93;;;6.63;;
15425;SDS011;7812;50.072;7.036;2023-12-04T04:41:00;9.00;;;6.30;;
15425;SDS011;7812;50.072;7.036;2023-12-04T04:43:26;7.47;;;6.27;;
15425;SDS011;7812;50.072;7.036;2023-12-04T04:45:52;8.30;;;6.17;;
15425;SDS011;7812;50.072;7.036;2023-12-04T04:48:17;9.43;;;7.00;;
15425;SDS011;7812;50.072;7.036;2023-12-04T04:50:44;8.77;;;6.70;;
15425;SDS011;7812;50.072;7.036;2023-12-04T04:53:10;7.67;;;6.10;;
15425;SDS011;7812;50.072;7.036;2023-12-04T04:55:36;8.73;;;7.07;;
15425;SDS011;7812;50.072;7.036;2023-12-04T04:58:01;8.27;;;6.50;;
15425;SDS011;7812;50.072;7.036;2023-12-04T05:00:27;9.07;;;7.10;;
15425;SDS011;7812;50.072;7.036;2023-12-04T05:02:53;9.63;;;6.97;;
15425;SDS011;7812;50.072;7.036;2023-12-04T05:05:18;9.70;;;6.80;;
15425;SDS011;7812;50.072;7.036;2023-12-04T05:07:44;9.03;;;7.03;;
15425;SDS011;7812;50.072;7.036;2023-12-04T05:10:09;9.00;;;7.17;;
15425;SDS011;7812;50.072;7.036;2023-12-04T05:12:35;9.57;;;7.33;;
15425;SDS011;7812;50.072;7.036;2023-12-04T05:15:01;9.33;;;7.07;;
15425;SDS011;7812;50.072;7.036;2023-12-04T05:17:26;10.47;;;7.47;;
15425;SDS011;7812;50.072;7.036;2023-12-04T05:19:52;9.20;;;7.07;;
15425;SDS011;7812;50.072;7.036;2023-12-04T05:22:18;9.57;;;7.00;;
15425;SDS011;7812;50.072;7.036;2023-12-04T05:24:43;7.60;;;6.80;;
15425;SDS011;7812;50.072;7.036;2023-12-04T05:27:09;8.20;;;6.33;;
15425;SDS011;7812;50.072;7.036;2023-12-04T05:29:34;8.90;;;7.20;;
15425;SDS011;7812;50.072;7.036;2023-12-04T05:32:00;8.53;;;6.73;;
15425;SDS011;7812;50.072;7.036;2023-12-04T05:34:25;9.30;;;6.77;;
15425;SDS011;7812;50.072;7.036;2023-12-04T05:36:51;9.43;;;7.13;;
15425;SDS011;7812;50.072;7.036;2023-12-04T05:39:17;9.67;;;6.80;;
15425;SDS011;7812;50.072;7.036;2023-12-04T05:41:42;10.27;;;7.27;;
15425;SDS011;7812;50.072;7.036;2023-12-04T05:44:08;9.17;;;7.13;;
15425;SDS011;7812;50.072;7.036;2023-12-04T05:46:34;10.93;;;7.97;;
15425;SDS011;7812;50.072;7.036;2023-12-04T05:48:59;8.27;;;6.60;;
15425;SDS011;7812;50.072;7.036;2023-12-04T05:51:25;8.80;;;6.60;;
15425;SDS011;7812;50.072;7.036;2023-12-04T05:53:50;9.63;;;7.47;;
15425;SDS011;7812;50.072;7.036;2023-12-04T05:56:16;8.50;;;6.93;;
15425;SDS011;7812;50.072;7.036;2023-12-04T05:58:42;7.40;;;6.57;;
15425;SDS011;7812;50.072;7.036;2023-12-04T06:01:07;8.63;;;7.13;;
15425;SDS011;7812;50.072;7.036;2023-12-04T06:03:33;9.20;;;6.43;;
15425;SDS011;7812;50.072;7.036;2023-12-04T06:05:58;11.20;;;7.80;;
15425;SDS011;7812;50.072;7.036;2023-12-04T06:08:24;8.93;;;6.73;;
15425;SDS011;7812;50.072;7.036;2023-12-04T06:10:50;11.70;;;8.57;;
15425;SDS011;7812;50.072;7.036;2023-12-04T06:13:16;10.20;;;7.90;;
15425;SDS011;7812;50.072;7.036;2023-12-04T06:15:41;11.27;;;8.30;;
15425;SDS011;7812;50.072;7.036;2023-12-04T06:18:07;12.23;;;8.70;;
15425;SDS011;7812;50.072;7.036;2023-12-04T06:20:33;12.70;;;9.23;;
15425;SDS011;7812;50.072;7.036;2023-12-04T06:22:59;9.27;;;7.37;;
15425;SDS011;7812;50.072;7.036;2023-12-04T06:25:25;10.43;;;8.23;;
15425;SDS011;7812;50.072;7.036;2023-12-04T06:27:51;11.90;;;8.77;;
15425;SDS011;7812;50.072;7.036;2023-12-04T06:30:17;11.63;;;8.80;;
15425;SDS011;7812;50.072;7.036;2023-12-04T06:32:43;9.20;;;7.53;;
15425;SDS011;7812;50.072;7.036;2023-12-04T06:35:09;11.60;;;8.20;;
15425;SDS011;7812;50.072;7.036;2023-12-04T06:37:36;10.17;;;7.70;;
15425;SDS011;7812;50.072;7.036;2023-12-04T06:40:03;9.83;;;7.93;;
15425;SDS011;7812;50.072;7.036;2023-12-04T06:42:30;12.30;;;7.97;;
15425;SDS011;7812;50.072;7.036;2023-12-04T06:44:55;9.67;;;7.57;;
15425;SDS011;7812;50.072;7.036;2023-12-04T06:47:22;12.00;;;7.70;;
15425;SDS011;7812;50.072;7.036;2023-12-04T06:49:48;10.37;;;8.00;;
15425;SDS011;7812;50.072;7.036;2023-12-04T06:52:14;10.60;;;8.07;;
15425;SDS011;7812;50.072;7.036;2023-12-04T06:54:39;8.97;;;7.70;;
15425;SDS011;7812;50.072;7.036;2023-12-04T06:57:05;10.77;;;7.77;;
15425;SDS011;7812;50.072;7.036;2023-12-04T06:59:31;10.43;;;8.27;;
15425;SDS011;7812;50.072;7.036;2023-12-04T07:01:56;10.50;;;7.77;;
15425;SDS011;7812;50.072;7.036;2023-12-04T07:04:22;11.60;;;8.13;;
15425;SDS011;7812;50.072;7.036;2023-12-04T07:06:48;10.77;;;8.63;;
15425;SDS011;7812;50.072;7.036;2023-12-04T07:09:14;10.50;;;7.90;;
15425;SDS011;7812;50.072;7.036;2023-12-04T07:11:41;8.97;;;7.70;;
15425;SDS011;7812;50.072;7.036;2023-12-04T07:14:07;8.53;;;6.63;;
15425;SDS011;7812;50.072;7.036;2023-12-04T07:16:43;10.50;;;8.07;;
15425;SDS011;7812;50.072;7.036;2023-12-04T07:19:09;10.37;;;8.23;;
15425;SDS011;7812;50.072;7.036;2023-12-04T07:21:36;10.03;;;8.47;;
15425;SDS011;7812;50.072;7.036;2023-12-04T07:24:02;9.10;;;7.43;;
15425;SDS011;7812;50.072;7.036;2023-12-04T07:26:28;9.70;;;8.00;;
15425;SDS011;7812;50.072;7.036;2023-12-04T07:28:56;9.53;;;7.57;;
15425;SDS011;7812;50.072;7.036;2023-12-04T07:31:21;10.27;;;7.40;;
15425;SDS011;7812;50.072;7.036;2023-12-04T07:33:47;9.27;;;7.67;;
15425;SDS011;7812;50.072;7.036;2023-12-04T07:36:12;10.77;;;8.30;;
15425;SDS011;7812;50.072;7.036;2023-12-04T07:38:38;8.20;;;7.10;;
15425;SDS011;7812;50.072;7.036;2023-12-04T07:41:04;9.10;;;7.60;;
15425;SDS011;7812;50.072;7.036;2023-12-04T07:43:29;8.90;;;7.03;;
15425;SDS011;7812;50.072;7.036;2023-12-04T07:45:55;8.93;;;7.50;;
15425;SDS011;7812;50.072;7.036;2023-12-04T07:48:22;9.13;;;7.30;;
15425;SDS011;7812;50.072;7.036;2023-12-04T07:50:48;8.70;;;7.10;;
15425;SDS011;7812;50.072;7.036;2023-12-04T07:53:13;10.20;;;8.23;;
15425;SDS011;7812;50.072;7.036;2023-12-04T07:55:39;8.37;;;6.77;;
15425;SDS011;7812;50.072;7.036;2023-12-04T07:58:05;10.30;;;8.03;;
15425;SDS011;7812;50.072;7.036;2023-12-04T08:00:30;11.33;;;8.50;;
15425;SDS011;7812;50.072;7.036;2023-12-04T08:02:56;11.47;;;9.00;;
15425;SDS011;7812;50.072;7.036;2023-12-04T08:05:22;12.23;;;9.60;;
15425;SDS011;7812;50.072;7.036;2023-12-04T08:07:47;10.13;;;7.57;;
15425;SDS011;7812;50.072;7.036;2023-12-04T08:10:13;10.43;;;8.73;;
15425;SDS011;7812;50.072;7.036;2023-12-04T08:12:39;12.47;;;8.70;;
15425;SDS011;7812;50.072;7.036;2023-12-04T08:15:05;10.53;;;8.47;;
15425;SDS011;7812;50.072;7.036;2023-12-04T08:17:31;12.47;;;9.40;;
15425;SDS011;7812;50.072;7.036;2023-12-04T08:19:56;10.97;;;9.10;;
15425;SDS011;7812;50.072;7.036;2023-12-04T08:22:22;9.93;;;7.87;;
15425;SDS011;7812;50.072;7.036;2023-12-04T08:24:48;11.87;;;9.17;;
15425;SDS011;7812;50.072;7.036;2023-12-04T08:27:13;11.30;;;8.90;;
15425;SDS011;7812;50.072;7.036;2023-12-04T08:29:39;13.17;;;10.17;;
15425;SDS011;7812;50.072;7.036;2023-12-04T08:32:05;11.20;;;8.70;;
15425;SDS011;7812;50.072;7.036;2023-12-04T08:34:31;11.77;;;9.40;;
15425;SDS011;7812;50.072;7.036;2023-12-04T08:36:57;13.57;;;10.20;;
15425;SDS011;7812;50.072;7.036;2023-12-04T08:39:22;12.30;;;9.70;;
15425;SDS011;7812;50.072;7.036;2023-12-04T08:41:48;12.73;;;9.50;;
15425;SDS011;7812;50.072;7.036;2023-12-04T08:44:14;13.03;;;9.83;;
15425;SDS011;7812;50.072;7.036;2023-12-04T08:46:39;11.23;;;8.63;;
15425;SDS011;7812;50.072;7.036;2023-12-04T08:49:06;11.57;;;9.27;;
15425;SDS011;7812;50.072;7.036;2023-12-04T08:51:32;13.17;;;10.50;;
15425;SDS011;7812;50.072;7.036;2023-12-04T08:53:58;13.13;;;10.40;;
15425;SDS011;7812;50.072;7.036;2023-12-04T08:56:23;10.83;;;8.53;;
15425;SDS011;7812;50.072;7.036;2023-12-04T08:58:49;11.97;;;9.47;;
15425;SDS011;7812;50.072;7.036;2023-12-04T09:01:17;13.10;;;10.03;;
15425;SDS011;7812;50.072;7.036;2023-12-04T09:03:43;12.83;;;9.97;;
15425;SDS011;7812;50.072;7.036;2023-12-04T09:06:09;11.83;;;9.00;;
15425;SDS011;7812;50.072;7.036;2023-12-04T09:08:35;11.63;;;9.47;;
15425;SDS011;7812;50.072;7.036;2023-12-04T09:11:00;10.87;;;9.03;;
15425;SDS011;7812;50.072;7.036;2023-12-04T09:13:26;12.73;;;9.43;;
15425;SDS011;7812;50.072;7.036;2023-12-04T09:15:52;14.63;;;9.80;;
15425;SDS011;7812;50.072;7.036;2023-12-04T09:18:17;12.33;;;10.23;;
15425;SDS011;7812;50.072;7.036;2023-12-04T09:20:43;12.77;;;10.07;;
15425;SDS011;7812;50.072;7.036;2023-12-04T09:23:09;12.30;;;9.57;;
15425;SDS011;7812;50.072;7.036;2023-12-04T09:25:35;12.50;;;10.17;;
15425;SDS011;7812;50.072;7.036;2023-12-04T09:28:04;13.23;;;9.77;;
15425;SDS011;7812;50.072;7.036;2023-12-04T09:30:31;13.60;;;10.37;;
15425;SDS011;7812;50.072;7.036;2023-12-04T09:32:56;13.23;;;10.27;;
15425;SDS011;7812;50.072;7.036;2023-12-04T09:35:22;15.17;;;11.03;;
15425;SDS011;7812;50.072;7.036;2023-12-04T09:37:48;15.37;;;11.50;;
15425;SDS011;7812;50.072;7.036;2023-12-04T09:40:15;14.80;;;11.13;;
15425;SDS011;7812;50.072;7.036;2023-12-04T09:42:41;13.50;;;10.63;;
15425;SDS011;7812;50.072;7.036;2023-12-04T09:45:08;13.43;;;10.07;;
15425;SDS011;7812;50.072;7.036;2023-12-04T09:47:34;14.00;;;10.20;;
15425;SDS011;7812;50.072;7.036;2023-12-04T09:50:00;12.20;;;10.23;;
15425;SDS011;7812;50.072;7.036;2023-12-04T09:52:27;12.50;;;9.97;;
15425;SDS011;7812;50.072;7.036;2023-12-04T09:54:53;14.93;;;10.73;;
15425;SDS011;7812;50.072;7.036;2023-12-04T09:57:18;13.73;;;10.43;;
15425;SDS011;7812;50.072;7.036;2023-12-04T09:59:44;14.27;;;11.50;;
15425;SDS011;7812;50.072;7.036;2023-12-04T10:02:14;12.73;;;10.97;;
15425;SDS011;7812;50.072;7.036;2023-12-04T10:04:40;13.17;;;10.23;;
15425;SDS011;7812;50.072;7.036;2023-12-04T10:07:07;14.47;;;10.20;;
15425;SDS011;7812;50.072;7.036;2023-12-04T10:09:33;14.80;;;11.10;;
15425;SDS011;7812;50.072;7.036;2023-12-04T10:11:59;12.47;;;9.83;;
15425;SDS011;7812;50.072;7.036;2023-12-04T10:14:25;11.83;;;9.73;;
15425;SDS011;7812;50.072;7.036;2023-12-04T10:16:51;11.77;;;10.03;;
15425;SDS011;7812;50.072;7.036;2023-12-04T10:21:50;12.23;;;10.07;;
15425;SDS011;7812;50.072;7.036;2023-12-04T10:26:54;13.40;;;9.47;;
15425;SDS011;7812;50.072;7.036;2023-12-04T10:29:21;12.47;;;9.80;;
15425;SDS011;7812;50.072;7.036;2023-12-04T10:31:48;12.37;;;9.63;;
15425;SDS011;7812;50.072;7.036;2023-12-04T10:34:16;15.27;;;10.40;;
15425;SDS011;7812;50.072;7.036;2023-12-04T10:36:41;12.00;;;9.57;;
15425;SDS011;7812;50.072;7.036;2023-12-04T10:39:07;11.17;;;9.73;;
15425;SDS011;7812;50.072;7.036;2023-12-04T10:41:33;13.30;;;10.23;;
15425;SDS011;7812;50.072;7.036;2023-12-04T10:43:59;13.00;;;9.97;;
15425;SDS011;7812;50.072;7.036;2023-12-04T10:46:26;13.00;;;9.17;;
15425;SDS011;7812;50.072;7.036;2023-12-04T10:48:52;12.83;;;9.70;;
15425;SDS011;7812;50.072;7.036;2023-12-04T10:51:19;12.47;;;8.87;;
15425;SDS011;7812;50.072;7.036;2023-12-04T10:53:48;11.53;;;8.83;;
15425;SDS011;7812;50.072;7.036;2023-12-04T10:56:17;10.77;;;8.73;;
15425;SDS011;7812;50.072;7.036;2023-12-04T10:58:58;10.13;;;8.73;;
15425;SDS011;7812;50.072;7.036;2023-12-04T11:01:27;11.30;;;9.07;;
15425;SDS011;7812;50.072;7.036;2023-12-04T11:03:55;11.77;;;9.57;;
15425;SDS011;7812;50.072;7.036;2023-12-04T11:06:24;10.80;;;8.57;;
15425;SDS011;7812;50.072;7.036;2023-12-04T11:08:53;12.77;;;10.57;;
15425;SDS011;7812;50.072;7.036;2023-12-04T11:11:34;13.00;;;9.03;;
15425;SDS011;7812;50.072;7.036;2023-12-04T11:14:01;12.37;;;8.67;;
15425;SDS011;7812;50.072;7.036;2023-12-04T11:19:55;11.53;;;9.27;;
15425;SDS011;7812;50.072;7.036;2023-12-04T11:22:06;16.07;;;13.03;;
15425;SDS011;7812;50.072;7.036;2023-12-04T11:24:35;18.17;;;13.73;;
15425;SDS011;7812;50.072;7.036;2023-12-04T11:27:01;13.97;;;10.63;;
15425;SDS011;7812;50.072;7.036;2023-12-04T11:29:29;12.90;;;10.33;;
15425;SDS011;7812;50.072;7.036;2023-12-04T11:31:55;12.87;;;9.80;;
15425;SDS011;7812;50.072;7.036;2023-12-04T11:34:21;14.13;;;10.17;;
15425;SDS011;7812;50.072;7.036;2023-12-04T11:36:47;11.93;;;9.87;;
15425;SDS011;7812;50.072;7.036;2023-12-04T11:39:13;13.90;;;9.77;;
15425;SDS011;7812;50.072;7.036;2023-12-04T11:41:42;13.57;;;10.67;;
15425;SDS011;7812;50.072;7.036;2023-12-04T11:44:12;13.23;;;9.60;;
15425;SDS011;7812;50.072;7.036;2023-12-04T11:47:23;15.30;;;9.87;;
15425;SDS011;7812;50.072;7.036;2023-12-04T11:49:33;11.80;;;9.40;;
15425;SDS011;7812;50.072;7.036;2023-12-04T11:52:01;13.30;;;9.67;;
15425;SDS011;7812;50.072;7.036;2023-12-04T11:54:37;12.40;;;9.30;;
15425;SDS011;7812;50.072;7.036;2023-12-04T11:57:28;11.57;;;9.17;;
15425;SDS011;7812;50.072;7.036;2023-12-04T12:05:21;11.80;;;9.07;;
15425;SDS011;7812;50.072;7.036;2023-12-04T12:07:48;14.67;;;10.37;;
15425;SDS011;7812;50.072;7.036;2023-12-04T12:10:14;13.57;;;10.23;;
15425;SDS011;7812;50.072;7.036;2023-12-04T12:12:44;12.73;;;9.43;;
15425;SDS011;7812;50.072;7.036;2023-12-04T12:15:11;12.87;;;9.80;;
15425;SDS011;7812;50.072;7.036;2023-12-04T12:17:38;13.03;;;10.17;;
15425;SDS011;7812;50.072;7.036;2023-12-04T12:20:07;13.03;;;9.70;;
15425;SDS011;7812;50.072;7.036;2023-12-04T12:22:36;13.40;;;10.00;;
15425;SDS011;7812;50.072;7.036;2023-12-04T12:25:06;14.40;;;11.87;;
15425;SDS011;7812;50.072;7.036;2023-12-04T12:27:33;13.10;;;10.37;;
15425;SDS011;7812;50.072;7.036;2023-12-04T12:29:59;15.47;;;11.60;;
15425;SDS011;7812;50.072;7.036;2023-12-04T12:32:29;14.37;;;11.23;;
15425;SDS011;7812;50.072;7.036;2023-12-04T12:34:56;13.10;;;10.13;;
15425;SDS011;7812;50.072;7.036;2023-12-04T12:37:22;15.67;;;11.30;;
15425;SDS011;7812;50.072;7.036;2023-12-04T12:39:48;14.67;;;9.97;;
15425;SDS011;7812;50.072;7.036;2023-12-04T12:42:24;15.03;;;10.20;;
15425;SDS011;7812;50.072;7.036;2023-12-04T12:44:51;11.90;;;9.10;;
15425;SDS011;7812;50.072;7.036;2023-12-04T12:47:18;12.83;;;10.70;;
15425;SDS011;7812;50.072;7.036;2023-12-04T12:49:44;12.17;;;9.47;;
15425;SDS011;7812;50.072;7.036;2023-12-04T12:52:11;12.90;;;9.20;;
15425;SDS011;7812;50.072;7.036;2023-12-04T12:54:41;12.90;;;9.37;;
15425;SDS011;7812;50.072;7.036;2023-12-04T12:57:08;11.10;;;8.40;;
15425;SDS011;7812;50.072;7.036;2023-12-04T12:59:35;10.93;;;7.93;;
15425;SDS011;7812;50.072;7.036;2023-12-04T13:02:01;11.53;;;9.50;;
15425;SDS011;7812;50.072;7.036;2023-12-04T13:04:35;11.43;;;8.90;;
15425;SDS011;7812;50.072;7.036;2023-12-04T13:07:02;10.17;;;7.97;;
15425;SDS011;7812;50.072;7.036;2023-12-04T13:09:29;11.53;;;9.00;;
15425;SDS011;7812;50.072;7.036;2023-12-04T13:11:55;10.93;;;8.67;;
15425;SDS011;7812;50.072;7.036;2023-12-04T13:14:20;11.07;;;8.60;;
15425;SDS011;7812;50.072;7.036;2023-12-04T13:16:46;10.27;;;8.37;;
15425;SDS011;7812;50.072;7.036;2023-12-04T13:19:12;10.17;;;8.13;;
15425;SDS011;7812;50.072;7.036;2023-12-04T13:21:37;10.93;;;8.43;;
15425;SDS011;7812;50.072;7.036;2023-12-04T13:24:03;10.27;;;9.00;;
15425;SDS011;7812;50.072;7.036;2023-12-04T13:26:32;10.20;;;8.40;;
15425;SDS011;7812;50.072;7.036;2023-12-04T13:28:58;10.27;;;8.17;;
15425;SDS011;7812;50.072;7.036;2023-12-04T13:31:26;9.87;;;7.90;;
15425;SDS011;7812;50.072;7.036;2023-12-04T13:33:53;10.83;;;7.80;;
15425;SDS011;7812;50.072;7.036;2023-12-04T13:36:19;10.20;;;8.10;;
15425;SDS011;7812;50.072;7.036;2023-12-04T13:38:45;9.57;;;8.30;;
15425;SDS011;7812;50.072;7.036;2023-12-04T13:41:10;11.63;;;8.30;;
15425;SDS011;7812;50.072;7.036;2023-12-04T13:43:55;11.07;;;7.80;;
15425;SDS011;7812;50.072;7.036;2023-12-04T13:46:21;11.10;;;8.80;;
15425;SDS011;7812;50.072;7.036;2023-12-04T13:48:47;10.10;;;8.17;;
15425;SDS011;7812;50.072;7.036;2023-12-04T13:51:14;10.57;;;8.07;;
15425;SDS011;7812;50.072;7.036;2023-12-04T13:53:40;10.23;;;8.03;;
15425;SDS011;7812;50.072;7.036;2023-12-04T13:56:12;10.57;;;7.90;;
15425;SDS011;7812;50.072;7.036;2023-12-04T13:59:07;11.00;;;7.87;;
15425;SDS011;7812;50.072;7.036;2023-12-04T14:01:33;8.30;;;7.40;;
15425;SDS011;7812;50.072;7.036;2023-12-04T14:03:59;9.47;;;7.53;;
15425;SDS011;7812;50.072;7.036;2023-12-04T14:06:29;9.33;;;7.27;;
15425;SDS011;7812;50.072;7.036;2023-12-04T14:08:55;11.00;;;8.07;;
15425;SDS011;7812;50.072;7.036;2023-12-04T14:11:22;8.93;;;7.27;;
15425;SDS011;7812;50.072;7.036;2023-12-04T14:13:49;11.73;;;7.63;;
15425;SDS011;7812;50.072;7.036;2023-12-04T14:16:15;8.77;;;7.30;;
15425;SDS011;7812;50.072;7.036;2023-12-04T14:18:43;8.03;;;7.23;;
15425;SDS011;7812;50.072;7.036;2023-12-04T14:21:09;7.93;;;7.13;;
15425;SDS011;7812;50.072;7.036;2023-12-04T14:23:35;10.03;;;7.70;;
15425;SDS011;7812;50.072;7.036;2023-12-04T14:26:01;9.30;;;7.10;;
15425;SDS011;7812;50.072;7.036;2023-12-04T14:28:28;9.33;;;7.70;;
15425;SDS011;7812;50.072;7.036;2023-12-04T14:30:54;10.07;;;8.07;;
15425;SDS011;7812;50.072;7.036;2023-12-04T14:33:20;9.47;;;7.77;;
15425;SDS011;7812;50.072;7.036;2023-12-04T14:35:46;9.63;;;7.27;;
15425;SDS011;7812;50.072;7.036;2023-12-04T14:38:13;8.63;;;6.77;;
15425;SDS011;7812;50.072;7.036;2023-12-04T14:40:39;7.53;;;6.40;;
15425;SDS011;7812;50.072;7.036;2023-12-04T14:43:05;8.77;;;7.47;;
15425;SDS011;7812;50.072;7.036;2023-12-04T14:45:34;8.33;;;7.23;;
15425;SDS011;7812;50.072;7.036;2023-12-04T14:48:01;7.30;;;6.53;;
15425;SDS011;7812;50.072;7.036;2023-12-04T14:50:31;7.87;;;6.27;;
15425;SDS011;7812;50.072;7.036;2023-12-04T14:52:57;7.67;;;6.57;;
15425;SDS011;7812;50.072;7.036;2023-12-04T14:55:36;7.63;;;6.67;;
15425;SDS011;7812;50.072;7.036;2023-12-04T14:58:20;7.53;;;6.63;;
15425;SDS011;7812;50.072;7.036;2023-12-04T15:01:18;6.83;;;6.13;;
15425;SDS011;7812;50.072;7.036;2023-12-04T15:03:47;7.70;;;6.47;;